Aviation Digital Data Service (ADDS)

Output produced by TAFs form (0031 UTC 24 May 2017)
found at http://aviationweather.gov/adds/tafs/
 
KTCS 232331Z 2400/2424 03008KT P6SM FEW120 
     FM240300 30006KT P6SM SKC 
     FM241600 08006KT P6SM SKC 
     FM242100 18013G23KT P6SM FEW250